Time;durP1;ratioP1;P1;durP2;ratioP2;P2;SDS_P1;SDS_P2;PMS_P1;PMS_P2;Temp;Humidity;BMP_temperature;BMP_pressure;BME280_temperature;BME280_humidity;BME280_pressure;Samples;Min_cycle;Max_cycle;Signal;HPM_P1;HPM_P2
2022/10/09 00:01:30;;;;;;;7.97;3.90;;;11.40;99.90;;;;;;5056771;28;20431;-68
2022/10/09 00:03:56;;;;;;;7.53;3.78;;;11.30;99.90;;;;;;5044711;28;20040;-71
2022/10/09 00:06:28;;;;;;;10.80;3.90;;;11.30;99.90;;;;;;5055519;28;20033;-69
2022/10/09 00:08:54;;;;;;;6.93;3.75;;;11.20;99.90;;;;;;5056630;28;20090;-71
2022/10/09 00:11:23;;;;;;;9.57;4.50;;;11.20;99.90;;;;;;5055448;28;20441;-71
2022/10/09 00:13:49;;;;;;;6.97;4.40;;;11.20;99.90;;;;;;5056593;28;20095;-67
2022/10/09 00:16:16;;;;;;;8.90;4.15;;;11.20;99.90;;;;;;5066114;28;20516;-68
2022/10/09 00:18:42;;;;;;;6.65;4.32;;;11.10;99.90;;;;;;5076465;28;20413;-70
2022/10/09 00:21:32;;;;;;;12.10;4.38;;;11.00;99.90;;;;;;5074925;28;20102;-70
2022/10/09 00:24:00;;;;;;;5.40;3.30;;;10.90;99.90;;;;;;5064697;28;20029;-67
2022/10/09 00:26:26;;;;;;;7.43;4.43;;;10.90;99.90;;;;;;5056385;28;20112;-70
2022/10/09 00:28:52;;;;;;;7.68;3.97;;;10.80;99.90;;;;;;5054765;28;20036;-68
2022/10/09 00:31:18;;;;;;;5.68;3.53;;;10.90;99.90;;;;;;5056318;28;20029;-70
2022/10/09 00:33:43;;;;;;;4.82;3.35;;;10.80;99.90;;;;;;5056179;28;20483;-70
2022/10/09 00:36:18;;;;;;;8.35;4.30;;;10.80;99.90;;;;;;5056215;28;20028;-68
2022/10/09 00:38:43;;;;;;;10.32;4.07;;;10.80;99.90;;;;;;5056041;28;20032;-70
2022/10/09 00:41:14;;;;;;;5.93;4.20;;;10.70;99.90;;;;;;5055039;28;20037;-71
2022/10/09 00:43:43;;;;;;;7.75;4.03;;;10.70;99.90;;;;;;5055918;28;20044;-70
2022/10/09 00:46:19;;;;;;;7.63;4.10;;;10.70;99.90;;;;;;5055916;28;20040;-71
2022/10/09 00:48:49;;;;;;;10.77;5.35;;;10.70;99.90;;;;;;5055816;28;20021;-71
2022/10/09 00:51:15;;;;;;;12.15;4.93;;;10.70;99.90;;;;;;5054791;28;20414;-71
2022/10/09 00:53:41;;;;;;;10.55;5.45;;;10.70;99.90;;;;;;5055818;28;20032;-71
2022/10/09 00:56:07;;;;;;;9.65;4.70;;;10.70;99.90;;;;;;5055688;28;20398;-68
2022/10/09 00:58:32;;;;;;;6.45;3.80;;;10.60;99.90;;;;;;5055836;28;20027;-70
2022/10/09 01:00:58;;;;;;;8.38;4.15;;;10.60;99.90;;;;;;5055368;28;20069;-70
2022/10/09 01:03:23;;;;;;;8.43;4.55;;;10.60;99.90;;;;;;5055549;28;20036;-71
2022/10/09 01:06:08;;;;;;;11.32;5.38;;;10.50;99.90;;;;;;5055736;28;20025;-71
2022/10/09 01:08:40;;;;;;;5.30;3.58;;;10.50;99.90;;;;;;5055478;28;20021;-68
2022/10/09 01:11:19;;;;;;;5.85;3.20;;;10.50;99.90;;;;;;5055598;28;20104;-71
2022/10/09 01:13:56;;;;;;;7.05;3.20;;;10.40;99.90;;;;;;5055455;28;20056;-71
2022/10/09 01:16:28;;;;;;;8.48;3.75;;;10.40;99.90;;;;;;5063957;28;20020;-71
2022/10/09 01:18:56;;;;;;;6.43;3.53;;;10.40;99.90;;;;;;5075435;28;20074;-67
2022/10/09 01:21:34;;;;;;;10.55;3.78;;;10.30;99.90;;;;;;5075071;28;20047;-71
2022/10/09 01:24:32;;;;;;;7.65;4.40;;;10.30;99.90;;;;;;5062989;28;20107;-71
2022/10/09 01:27:07;;;;;;;11.90;4.53;;;10.30;99.90;;;;;;5055390;28;20033;-71
2022/10/09 01:29:43;;;;;;;9.80;4.47;;;10.30;99.90;;;;;;5055055;28;20029;-71
2022/10/09 01:32:13;;;;;;;8.35;3.90;;;10.30;99.90;;;;;;5053988;28;20423;-68
2022/10/09 01:34:43;;;;;;;8.48;3.40;;;10.30;99.90;;;;;;5055322;28;20018;-70
2022/10/09 01:37:10;;;;;;;8.90;5.20;;;10.30;99.90;;;;;;5055120;28;20429;-70
2022/10/09 01:39:36;;;;;;;8.80;4.97;;;10.20;99.90;;;;;;5054704;28;20104;-70
2022/10/09 01:42:02;;;;;;;9.40;4.50;;;10.20;99.90;;;;;;5054850;28;20041;-68
2022/10/09 01:44:30;;;;;;;9.00;5.38;;;10.20;99.90;;;;;;5054797;28;20021;-71
2022/10/09 01:46:56;;;;;;;7.32;5.30;;;10.10;99.90;;;;;;5053655;28;20062;-70
2022/10/09 01:49:43;;;;;;;12.95;6.55;;;10.10;99.90;;;;;;5053416;28;20534;-68
2022/10/09 01:52:30;;;;;;;11.93;6.32;;;10.00;99.90;;;;;;5054815;28;20143;-67
2022/10/09 01:55:25;;;;;;;20.05;9.75;;;10.00;99.90;;;;;;5054769;28;20029;-70
2022/10/09 01:58:04;;;;;;;9.65;4.60;;;9.90;99.90;;;;;;5053395;28;20032;-68
2022/10/09 02:00:34;;;;;;;13.82;6.40;;;9.80;99.90;;;;;;5054484;28;20503;-70
2022/10/09 02:03:02;;;;;;;15.48;7.35;;;9.70;99.90;;;;;;5053333;28;20043;-68
2022/10/09 02:05:29;;;;;;;17.75;7.30;;;9.70;99.90;;;;;;5054723;28;20386;-68
2022/10/09 02:07:56;;;;;;;16.77;7.28;;;9.70;99.90;;;;;;5053107;28;20029;-68
2022/10/09 02:10:23;;;;;;;17.30;6.90;;;9.70;99.90;;;;;;5054321;28;20048;-73
2022/10/09 02:12:53;;;;;;;16.77;7.97;;;9.60;99.90;;;;;;5054419;28;20471;-70
2022/10/09 02:15:20;;;;;;;35.65;14.93;;;9.60;99.90;;;;;;5054345;28;20025;-70
2022/10/09 02:17:49;;;;;;;23.95;13.50;;;9.60;99.90;;;;;;5071039;28;20509;-70
2022/10/09 02:20:19;;;;;;;16.80;8.48;;;9.50;99.90;;;;;;5074057;28;20023;-70
2022/10/09 02:22:46;;;;;;;12.23;5.63;;;9.50;99.90;;;;;;5071698;28;20393;-70
2022/10/09 02:25:12;;;;;;;14.95;7.70;;;9.50;99.90;;;;;;5054098;28;20017;-72
2022/10/09 02:27:38;;;;;;;7.47;4.43;;;9.50;99.90;;;;;;5054403;28;20029;-71
2022/10/09 02:30:07;;;;;;;10.77;5.63;;;9.50;99.90;;;;;;5053956;28;20401;-71
2022/10/09 02:32:33;;;;;;;9.38;5.63;;;9.50;99.90;;;;;;5053992;28;20036;-70
2022/10/09 02:34:58;;;;;;;8.10;5.70;;;9.50;99.90;;;;;;5053882;28;20017;-70
2022/10/09 02:37:24;;;;;;;7.43;5.00;;;9.50;99.90;;;;;;5052801;28;20036;-71
2022/10/09 02:39:49;;;;;;;9.95;6.20;;;9.50;99.90;;;;;;5053864;28;20402;-72
2022/10/09 02:42:15;;;;;;;9.70;4.53;;;9.50;99.90;;;;;;5052460;28;20044;-70
2022/10/09 02:44:41;;;;;;;11.05;5.88;;;9.60;99.90;;;;;;5053663;28;20056;-70
2022/10/09 02:47:07;;;;;;;9.40;5.25;;;9.50;99.90;;;;;;5053851;28;20050;-73
2022/10/09 02:49:32;;;;;;;7.55;4.10;;;9.50;99.90;;;;;;5053714;28;20029;-70
2022/10/09 02:51:58;;;;;;;7.60;4.75;;;9.50;99.90;;;;;;5053862;28;20032;-72
2022/10/09 02:54:24;;;;;;;6.75;4.95;;;9.40;99.90;;;;;;5053676;28;20083;-70
2022/10/09 02:56:49;;;;;;;14.63;6.07;;;9.50;99.90;;;;;;5052228;28;20025;-70
2022/10/09 02:59:15;;;;;;;8.50;5.10;;;9.40;99.90;;;;;;5053529;28;20044;-71
2022/10/09 03:01:40;;;;;;;9.63;5.15;;;9.30;99.90;;;;;;5053286;28;20482;-73
2022/10/09 03:04:06;;;;;;;9.75;5.18;;;9.30;99.90;;;;;;5053077;28;20032;-73
2022/10/09 03:06:32;;;;;;;9.13;4.32;;;9.30;99.90;;;;;;5052146;28;20033;-72
2022/10/09 03:08:58;;;;;;;14.68;6.00;;;9.30;99.90;;;;;;5053455;28;20025;-72
2022/10/09 03:11:25;;;;;;;13.18;5.30;;;9.30;99.90;;;;;;5053495;28;20033;-72
2022/10/09 03:13:51;;;;;;;12.38;6.10;;;9.20;99.90;;;;;;5053260;28;20017;-70
2022/10/09 03:16:22;;;;;;;11.55;6.72;;;9.20;99.90;;;;;;5057200;28;20023;-73
2022/10/09 03:18:49;;;;;;;14.18;7.82;;;9.20;99.90;;;;;;5073540;28;20044;-72
2022/10/09 03:21:17;;;;;;;10.35;6.30;;;9.20;99.90;;;;;;5071766;28;20009;-71
2022/10/09 03:23:43;;;;;;;8.93;4.78;;;9.10;99.90;;;;;;5062760;28;20040;-70
2022/10/09 03:26:12;;;;;;;12.10;6.65;;;9.10;99.90;;;;;;5053109;28;20017;-71
2022/10/09 03:28:39;;;;;;;7.65;5.22;;;9.10;99.90;;;;;;5053354;28;20036;-70
2022/10/09 03:31:06;;;;;;;10.63;6.55;;;9.00;99.90;;;;;;5053111;28;20104;-70
2022/10/09 03:33:32;;;;;;;10.00;5.50;;;9.00;99.90;;;;;;5053154;28;20032;-70
2022/10/09 03:35:58;;;;;;;9.23;4.80;;;9.00;99.90;;;;;;5053092;28;20021;-70
2022/10/09 03:38:24;;;;;;;14.50;5.15;;;9.00;99.90;;;;;;5052043;28;20017;-72
2022/10/09 03:40:50;;;;;;;11.15;5.55;;;9.00;99.90;;;;;;5053120;28;20021;-70
2022/10/09 03:43:16;;;;;;;12.98;5.60;;;9.00;99.90;;;;;;5053040;28;20435;-72
2022/10/09 03:45:42;;;;;;;9.02;5.65;;;9.00;99.90;;;;;;5053110;28;20049;-72
2022/10/09 03:48:12;;;;;;;6.47;4.65;;;9.00;99.90;;;;;;5051761;28;20024;-70
2022/10/09 03:50:39;;;;;;;9.00;5.05;;;9.00;99.90;;;;;;5053046;28;20032;-72
2022/10/09 03:53:06;;;;;;;6.43;4.75;;;9.00;99.90;;;;;;5053186;28;20025;-70
2022/10/09 03:55:32;;;;;;;10.70;4.93;;;8.90;99.90;;;;;;5053270;28;20126;-72
2022/10/09 03:57:57;;;;;;;7.07;5.15;;;8.90;99.90;;;;;;5053133;28;20063;-72
2022/10/09 04:00:23;;;;;;;10.48;4.50;;;8.90;99.90;;;;;;5052840;28;20513;-72
2022/10/09 04:02:49;;;;;;;8.55;5.15;;;8.90;99.90;;;;;;5052791;28;20048;-70
2022/10/09 04:05:15;;;;;;;10.45;5.65;;;8.90;99.90;;;;;;5052881;28;20025;-72
2022/10/09 04:07:40;;;;;;;7.75;5.13;;;8.90;99.90;;;;;;5052885;28;20486;-72
2022/10/09 04:10:06;;;;;;;12.00;6.07;;;8.80;99.90;;;;;;5052835;28;20100;-72
2022/10/09 04:12:32;;;;;;;13.65;5.90;;;8.80;99.90;;;;;;5052747;28;20132;-72
2022/10/09 04:14:58;;;;;;;8.15;5.80;;;8.80;99.90;;;;;;5051632;28;20068;-72
2022/10/09 04:17:24;;;;;;;9.85;4.60;;;8.80;99.90;;;;;;5064522;28;20052;-73
2022/10/09 04:19:49;;;;;;;7.78;5.47;;;8.80;99.90;;;;;;5076496;28;20070;-72
2022/10/09 04:22:15;;;;;;;9.50;4.88;;;8.80;99.90;;;;;;5074860;28;20024;-73
2022/10/09 04:24:40;;;;;;;16.50;6.25;;;8.80;99.90;;;;;;5057746;28;20056;-70
2022/10/09 04:27:06;;;;;;;11.48;6.10;;;8.70;99.90;;;;;;5056392;28;20425;-72
2022/10/09 04:29:31;;;;;;;10.18;5.20;;;8.70;99.90;;;;;;5055095;28;20039;-70
2022/10/09 04:31:57;;;;;;;7.15;4.78;;;8.60;99.90;;;;;;5056306;28;20021;-73
2022/10/09 04:34:23;;;;;;;6.80;5.35;;;8.60;99.90;;;;;;5055050;28;20104;-72
2022/10/09 04:36:48;;;;;;;6.93;5.15;;;8.60;99.90;;;;;;5051348;28;20022;-72
2022/10/09 04:39:14;;;;;;;8.60;5.80;;;8.60;99.90;;;;;;5036075;28;20062;-70
2022/10/09 04:41:39;;;;;;;10.60;5.10;;;8.60;99.90;;;;;;5038482;28;20033;-73
2022/10/09 04:44:05;;;;;;;11.00;5.88;;;8.70;99.90;;;;;;5056168;28;20542;-70
2022/10/09 04:46:30;;;;;;;9.85;6.15;;;8.70;99.90;;;;;;5055971;28;20096;-72
2022/10/09 04:48:56;;;;;;;10.65;5.90;;;8.60;99.90;;;;;;5055951;28;20029;-72
2022/10/09 04:51:22;;;;;;;7.38;4.97;;;8.60;99.90;;;;;;5055956;28;20036;-73
2022/10/09 04:53:47;;;;;;;8.68;6.18;;;8.60;99.90;;;;;;5054589;28;20040;-72
2022/10/09 04:56:16;;;;;;;8.75;5.38;;;8.60;99.90;;;;;;5055961;28;20409;-71
2022/10/09 04:58:43;;;;;;;8.45;6.22;;;8.60;99.90;;;;;;5040332;28;20040;-72
2022/10/09 05:01:21;;;;;;;9.73;6.13;;;8.50;99.90;;;;;;5035602;28;20400;-72
2022/10/09 05:03:47;;;;;;;8.30;6.22;;;8.40;99.90;;;;;;5054530;28;20099;-72
2022/10/09 05:06:14;;;;;;;11.52;6.50;;;8.40;99.90;;;;;;5055526;28;20029;-70
2022/10/09 05:08:41;;;;;;;8.93;5.88;;;8.40;99.90;;;;;;5055353;28;20060;-70
2022/10/09 05:11:12;;;;;;;8.95;6.60;;;8.40;99.90;;;;;;5055471;28;20021;-74
2022/10/09 05:13:40;;;;;;;11.15;6.65;;;8.40;99.90;;;;;;5055469;28;20040;-73
2022/10/09 05:16:09;;;;;;;11.70;6.40;;;8.50;99.90;;;;;;5055455;28;20021;-72
2022/10/09 05:18:40;;;;;;;11.45;5.25;;;8.40;99.90;;;;;;5071476;28;20024;-74
2022/10/09 05:21:05;;;;;;;8.43;5.55;;;8.30;99.90;;;;;;5073884;28;20017;-74
2022/10/09 05:23:31;;;;;;;10.30;5.63;;;8.40;99.90;;;;;;5065250;28;20033;-71
2022/10/09 05:26:00;;;;;;;10.55;5.43;;;8.40;99.90;;;;;;5055182;28;20120;-73
2022/10/09 05:28:26;;;;;;;9.85;5.70;;;8.40;99.90;;;;;;5054457;28;20025;-71
2022/10/09 05:30:52;;;;;;;8.18;5.30;;;8.40;99.90;;;;;;5055188;28;20021;-73
2022/10/09 05:33:18;;;;;;;14.18;6.15;;;8.40;99.90;;;;;;5054679;28;20052;-70
2022/10/09 05:35:54;;;;;;;11.75;6.57;;;8.50;99.90;;;;;;5055270;28;20028;-73
2022/10/09 05:38:21;;;;;;;10.38;6.40;;;8.50;99.90;;;;;;5055370;28;20497;-73
2022/10/09 05:40:50;;;;;;;9.20;5.65;;;8.60;99.90;;;;;;5052853;28;20367;-70
2022/10/09 05:43:16;;;;;;;10.07;5.93;;;8.60;99.90;;;;;;5065036;28;20124;-71
2022/10/09 05:45:42;;;;;;;10.43;5.90;;;8.60;99.90;;;;;;5073906;28;20044;-73
2022/10/09 05:48:07;;;;;;;8.77;6.25;;;8.70;99.90;;;;;;5072554;28;20020;-73
2022/10/09 05:50:33;;;;;;;7.00;5.72;;;8.70;99.90;;;;;;5072676;28;20035;-70
2022/10/09 05:52:58;;;;;;;11.25;5.97;;;8.70;99.90;;;;;;5072747;28;20498;-71
2022/10/09 05:55:26;;;;;;;8.73;6.35;;;8.80;99.90;;;;;;5071857;28;20024;-70
2022/10/09 05:57:52;;;;;;;11.20;5.80;;;8.80;99.90;;;;;;5072675;28;20052;-73
2022/10/09 06:00:18;;;;;;;9.98;5.75;;;8.70;99.90;;;;;;5071609;28;20052;-70
2022/10/09 06:02:43;;;;;;;8.93;6.00;;;8.70;99.90;;;;;;5072270;28;20040;-70
2022/10/09 06:05:09;;;;;;;8.93;5.88;;;8.70;99.90;;;;;;5072416;28;20028;-74
2022/10/09 06:07:34;;;;;;;11.10;6.03;;;8.70;99.90;;;;;;5070777;28;20031;-73
2022/10/09 06:10:00;;;;;;;12.10;5.45;;;8.70;99.90;;;;;;5072306;28;20025;-70
2022/10/09 06:12:25;;;;;;;9.00;6.03;;;8.80;99.90;;;;;;5066576;28;20392;-71
2022/10/09 06:14:51;;;;;;;9.10;6.05;;;8.70;99.90;;;;;;5053132;28;20039;-72
2022/10/09 06:17:16;;;;;;;10.52;6.32;;;8.60;99.90;;;;;;5054454;28;20025;-71
2022/10/09 06:19:42;;;;;;;10.63;6.20;;;8.60;99.90;;;;;;5054348;28;20065;-73
2022/10/09 06:22:07;;;;;;;7.20;5.68;;;8.60;99.90;;;;;;5054004;28;20043;-74
2022/10/09 06:24:33;;;;;;;7.85;6.20;;;8.50;99.90;;;;;;5071064;28;20024;-70
2022/10/09 06:26:59;;;;;;;10.55;6.93;;;8.60;99.90;;;;;;5074180;28;20066;-73
2022/10/09 06:29:25;;;;;;;8.52;6.00;;;8.70;99.90;;;;;;5072367;28;20119;-73
2022/10/09 06:31:50;;;;;;;6.43;5.68;;;8.70;99.90;;;;;;5074148;28;20386;-73
2022/10/09 06:34:16;;;;;;;11.00;5.47;;;8.60;99.90;;;;;;5073343;28;20108;-70
2022/10/09 06:36:42;;;;;;;6.70;5.90;;;8.70;99.90;;;;;;5073909;28;20048;-73
2022/10/09 06:39:09;;;;;;;5.82;4.80;;;8.60;99.90;;;;;;5071543;28;20036;-70
2022/10/09 06:41:35;;;;;;;11.65;5.60;;;8.70;99.90;;;;;;5055644;28;20032;-73
2022/10/09 06:44:03;;;;;;;7.32;4.90;;;8.80;99.90;;;;;;5044452;28;20033;-70
2022/10/09 06:46:33;;;;;;;11.10;5.10;;;8.80;99.90;;;;;;5036255;28;20013;-70
2022/10/09 06:49:00;;;;;;;9.98;5.35;;;8.90;99.90;;;;;;5048352;28;20025;-73
2022/10/09 06:51:29;;;;;;;11.50;5.50;;;8.90;99.90;;;;;;5053728;28;20021;-73
2022/10/09 06:53:57;;;;;;;7.68;5.30;;;9.00;99.90;;;;;;5067346;28;20028;-71
2022/10/09 06:56:25;;;;;;;10.10;5.47;;;9.10;99.90;;;;;;5073582;28;20029;-72
2022/10/09 06:58:51;;;;;;;5.97;5.22;;;9.10;99.90;;;;;;5071881;28;20098;-70
2022/10/09 07:01:25;;;;;;;9.10;5.38;;;9.10;99.90;;;;;;5073352;28;20048;-72
2022/10/09 07:03:56;;;;;;;8.85;4.95;;;9.00;99.90;;;;;;5073188;28;20518;-70
2022/10/09 07:06:24;;;;;;;11.52;4.75;;;9.00;99.90;;;;;;5073514;28;20027;-73
2022/10/09 07:08:52;;;;;;;9.20;4.93;;;9.10;99.90;;;;;;5071936;28;20040;-72
2022/10/09 07:11:21;;;;;;;7.28;4.57;;;9.10;99.90;;;;;;5072330;28;20020;-70
2022/10/09 07:13:49;;;;;;;10.18;5.05;;;9.20;99.90;;;;;;5056044;28;20036;-74
2022/10/09 07:16:23;;;;;;;6.80;3.65;;;9.20;99.90;;;;;;5053377;28;20021;-73
2022/10/09 07:18:49;;;;;;;4.95;3.63;;;9.20;99.90;;;;;;5051976;28;20540;-73
2022/10/09 07:21:15;;;;;;;7.50;3.90;;;9.50;99.90;;;;;;5053295;28;20025;-71
2022/10/09 07:23:41;;;;;;;5.95;4.38;;;9.60;99.90;;;;;;5064421;28;20086;-73
2022/10/09 07:26:19;;;;;;;4.82;4.43;;;9.70;99.90;;;;;;5072067;28;20017;-74
2022/10/09 07:28:46;;;;;;;4.70;4.05;;;9.70;99.90;;;;;;5072761;28;20056;-73
2022/10/09 07:31:13;;;;;;;8.10;4.18;;;9.90;99.90;;;;;;5073137;28;20055;-76
2022/10/09 07:33:40;;;;;;;5.03;3.30;;;9.90;99.90;;;;;;5072949;28;20425;-69
2022/10/09 07:36:07;;;;;;;6.88;3.90;;;9.90;99.90;;;;;;5073115;28;20032;-76
2022/10/09 07:38:33;;;;;;;5.70;4.05;;;10.10;99.90;;;;;;5071702;28;20106;-69
2022/10/09 07:41:04;;;;;;;5.53;4.55;;;10.10;99.90;;;;;;5055748;28;20024;-72
2022/10/09 07:43:30;;;;;;;5.15;3.75;;;10.10;99.90;;;;;;5053172;28;20036;-68
2022/10/09 07:46:00;;;;;;;6.38;3.55;;;10.20;99.90;;;;;;5052994;28;20378;-69
2022/10/09 07:48:26;;;;;;;3.88;3.20;;;10.20;99.90;;;;;;5051812;28;20486;-76
2022/10/09 07:50:52;;;;;;;4.70;3.10;;;10.30;99.90;;;;;;5054039;28;20029;-76
2022/10/09 07:53:18;;;;;;;5.13;3.30;;;10.40;99.90;;;;;;5057088;28;20127;-76
2022/10/09 07:55:45;;;;;;;6.97;3.60;;;10.40;99.90;;;;;;5054959;28;20120;-77
2022/10/09 07:58:12;;;;;;;6.53;3.67;;;10.50;99.90;;;;;;5056028;28;20013;-76
2022/10/09 08:00:38;;;;;;;3.75;3.42;;;10.40;99.90;;;;;;5055696;28;20061;-76
2022/10/09 08:03:04;;;;;;;5.43;3.15;;;10.30;99.90;;;;;;5055927;28;20059;-75
2022/10/09 08:05:29;;;;;;;4.28;3.03;;;10.30;99.90;;;;;;5055784;28;20075;-76
2022/10/09 08:07:56;;;;;;;7.25;3.25;;;10.40;99.90;;;;;;5055765;28;20445;-76
2022/10/09 08:10:21;;;;;;;4.20;3.10;;;10.30;99.90;;;;;;5056438;28;20025;-69
2022/10/09 08:12:47;;;;;;;9.40;3.05;;;10.50;99.90;;;;;;5056348;28;20029;-70
2022/10/09 08:15:13;;;;;;;6.50;4.40;;;10.60;99.90;;;;;;5075191;28;20035;-69
2022/10/09 08:17:38;;;;;;;6.00;3.42;;;10.80;99.90;;;;;;5074998;28;20017;-69
2022/10/09 08:20:05;;;;;;;4.97;3.50;;;11.00;99.90;;;;;;5076304;28;20435;-77
2022/10/09 08:22:30;;;;;;;5.47;2.70;;;11.00;99.90;;;;;;5063342;28;20037;-74
2022/10/09 08:24:56;;;;;;;4.07;2.42;;;10.90;99.90;;;;;;5059368;28;20151;-67
2022/10/09 08:27:22;;;;;;;6.40;2.65;;;10.90;99.90;;;;;;5055865;28;20031;-68
2022/10/09 08:29:47;;;;;;;5.15;2.63;;;10.90;99.90;;;;;;5047608;28;20029;-67
2022/10/09 08:32:13;;;;;;;5.70;2.65;;;11.00;99.90;;;;;;5055235;28;20524;-74
2022/10/09 08:34:39;;;;;;;5.05;2.40;;;11.20;99.90;;;;;;5054975;28;20021;-73
2022/10/09 08:37:04;;;;;;;4.82;2.58;;;11.40;99.90;;;;;;5056480;28;20364;-73
2022/10/09 08:39:31;;;;;;;7.03;2.20;;;11.30;99.90;;;;;;5056183;28;20542;-73
2022/10/09 08:42:00;;;;;;;5.80;2.53;;;11.20;99.90;;;;;;5054605;28;20053;-67
2022/10/09 08:44:39;;;;;;;7.10;2.50;;;11.30;99.90;;;;;;5056090;28;20112;-67
2022/10/09 08:47:24;;;;;;;6.18;2.33;;;11.60;99.90;;;;;;5055972;28;20057;-74
2022/10/09 08:50:12;;;;;;;3.60;2.40;;;11.80;99.90;;;;;;5054893;28;20022;-66
2022/10/09 08:52:57;;;;;;;5.65;2.55;;;11.80;99.90;;;;;;5056072;28;20036;-74
2022/10/09 08:55:35;;;;;;;6.95;2.70;;;11.70;99.90;;;;;;5055796;28;20056;-74
2022/10/09 08:58:03;;;;;;;2.83;2.40;;;11.70;99.90;;;;;;5055853;28;20398;-67
2022/10/09 09:00:50;;;;;;;3.42;2.50;;;11.80;99.90;;;;;;5055560;28;20509;-67
2022/10/09 09:03:54;;;;;;;6.25;2.30;;;12.00;99.90;;;;;;5054736;28;20076;-66
2022/10/09 09:06:48;;;;;;;7.35;2.40;;;12.00;98.20;;;;;;5055599;28;20053;-67
2022/10/09 09:09:58;;;;;;;6.07;2.75;;;11.70;96.00;;;;;;5055596;28;20031;-67
2022/10/09 09:12:34;;;;;;;4.30;2.22;;;11.70;99.90;;;;;;5043578;28;20040;-67
2022/10/09 09:15:35;;;;;;;4.97;2.00;;;11.80;99.90;;;;;;5070629;28;20048;-67
2022/10/09 09:18:12;;;;;;;4.90;1.75;;;11.80;98.00;;;;;;5075551;28;20024;-68
2022/10/09 09:20:51;;;;;;;3.90;1.75;;;11.80;93.80;;;;;;5075507;28;20028;-74
2022/10/09 09:23:25;;;;;;;1.98;1.30;;;11.90;89.20;;;;;;5063420;28;20124;-74
2022/10/09 09:25:51;;;;;;;5.97;2.28;;;11.90;90.60;;;;;;5053347;28;20025;-73
2022/10/09 09:28:27;;;;;;;4.43;2.47;;;12.00;92.50;;;;;;5053457;28;20036;-67
2022/10/09 09:31:13;;;;;;;3.28;2.17;;;12.20;94.90;;;;;;5033742;28;20034;-67
2022/10/09 09:34:11;;;;;;;4.45;2.47;;;12.20;96.10;;;;;;5036720;28;20074;-67
2022/10/09 09:36:46;;;;;;;4.30;2.08;;;12.30;94.30;;;;;;5052401;28;20037;-67
2022/10/09 09:39:13;;;;;;;2.40;1.98;;;12.00;88.90;;;;;;5055264;28;20021;-67
2022/10/09 09:41:40;;;;;;;4.07;2.38;;;12.00;88.70;;;;;;5055113;28;20096;-67
2022/10/09 09:44:08;;;;;;;5.45;2.03;;;12.10;91.00;;;;;;5055189;28;20041;-67
2022/10/09 09:46:36;;;;;;;4.30;1.98;;;12.10;91.60;;;;;;5054934;28;20020;-67
2022/10/09 09:49:02;;;;;;;2.92;1.75;;;12.00;88.40;;;;;;5055002;28;20025;-74
2022/10/09 09:51:31;;;;;;;3.00;1.85;;;11.70;89.80;;;;;;5055044;28;20071;-74
2022/10/09 09:54:06;;;;;;;5.15;2.10;;;11.60;88.90;;;;;;5054921;28;20131;-74
2022/10/09 09:56:53;;;;;;;3.78;1.95;;;11.60;88.00;;;;;;5053580;28;20040;-67
2022/10/09 09:59:41;;;;;;;4.38;2.28;;;12.00;86.80;;;;;;5054915;28;20024;-67
2022/10/09 10:02:13;;;;;;;4.45;1.88;;;12.20;81.90;;;;;;5053327;28;20470;-74
2022/10/09 10:04:57;;;;;;;6.00;2.43;;;12.30;84.20;;;;;;5053515;28;20079;-67
2022/10/09 10:07:40;;;;;;;5.82;2.05;;;12.20;88.30;;;;;;5054653;28;20453;-67
2022/10/09 10:10:14;;;;;;;4.95;2.00;;;12.10;83.80;;;;;;5054536;28;20021;-67
2022/10/09 10:12:43;;;;;;;6.15;2.47;;;11.90;83.60;;;;;;5054628;28;20386;-67
2022/10/09 10:15:29;;;;;;;3.75;1.77;;;11.90;86.50;;;;;;5067122;28;20020;-67
2022/10/09 10:17:59;;;;;;;4.30;2.28;;;12.20;85.30;;;;;;5074432;28;20029;-67
2022/10/09 10:20:26;;;;;;;3.45;2.08;;;12.30;81.10;;;;;;5074062;28;20492;-74
2022/10/09 10:22:55;;;;;;;5.95;2.75;;;12.40;81.30;;;;;;5068431;28;20051;-67
2022/10/09 10:25:25;;;;;;;4.38;2.70;;;12.30;80.20;;;;;;5054279;28;20107;-74
2022/10/09 10:27:56;;;;;;;3.60;2.05;;;12.10;77.60;;;;;;5052931;28;20117;-67
2022/10/09 10:30:22;;;;;;;5.15;2.15;;;12.20;77.40;;;;;;5054222;28;20441;-67
2022/10/09 10:32:53;;;;;;;3.65;1.70;;;12.30;79.20;;;;;;5054147;28;20028;-68
2022/10/09 10:35:28;;;;;;;5.88;2.63;;;12.50;79.00;;;;;;5054090;28;20025;-67
2022/10/09 10:38:25;;;;;;;6.00;2.58;;;12.40;77.10;;;;;;5054104;28;20106;-67
2022/10/09 10:41:13;;;;;;;2.58;1.70;;;12.60;76.90;;;;;;5052800;28;20036;-67
2022/10/09 10:43:45;;;;;;;5.57;1.75;;;12.70;75.40;;;;;;5053954;28;20033;-74
2022/10/09 10:46:22;;;;;;;2.45;2.03;;;12.90;73.90;;;;;;5052600;28;20017;-74
2022/10/09 10:48:48;;;;;;;2.53;1.40;;;12.70;78.90;;;;;;5053631;28;20391;-74
2022/10/09 10:51:32;;;;;;;6.55;2.10;;;12.90;79.70;;;;;;5053505;28;20032;-67
2022/10/09 10:54:17;;;;;;;3.42;1.92;;;12.90;76.30;;;;;;5053619;28;20483;-67
2022/10/09 10:57:08;;;;;;;3.80;1.98;;;12.90;74.00;;;;;;5053783;28;20466;-74
2022/10/09 11:00:09;;;;;;;4.07;1.83;;;13.00;73.70;;;;;;5049867;28;20025;-74
2022/10/09 11:02:59;;;;;;;2.63;2.35;;;13.10;71.20;;;;;;5053339;28;20071;-67
2022/10/09 11:05:48;;;;;;;4.35;2.17;;;13.10;71.10;;;;;;5052198;28;20425;-67
2022/10/09 11:08:27;;;;;;;8.05;2.42;;;12.90;71.50;;;;;;5053336;28;20108;-66
2022/10/09 11:11:14;;;;;;;3.53;1.80;;;12.90;73.80;;;;;;5052302;28;20029;-74
2022/10/09 11:13:58;;;;;;;3.95;2.03;;;12.80;72.80;;;;;;5053474;28;20029;-74
2022/10/09 11:16:36;;;;;;;3.05;1.58;;;12.90;71.70;;;;;;5072045;28;20490;-74
2022/10/09 11:19:14;;;;;;;2.63;1.60;;;13.10;72.80;;;;;;5073275;28;20056;-74
2022/10/09 11:21:48;;;;;;;3.13;1.80;;;13.30;72.60;;;;;;5033488;28;20030;-74
2022/10/09 11:24:25;;;;;;;4.50;1.67;;;13.50;70.10;;;;;;5067645;28;20040;-67
2022/10/09 11:27:09;;;;;;;6.35;2.78;;;13.40;68.40;;;;;;5072783;28;20032;-74
2022/10/09 11:29:50;;;;;;;2.83;1.58;;;13.20;69.80;;;;;;5072679;28;20055;-68
2022/10/09 11:32:33;;;;;;;3.05;1.75;;;13.00;69.50;;;;;;5072997;28;20048;-67
2022/10/09 11:35:14;;;;;;;3.72;1.63;;;12.90;69.90;;;;;;5072890;28;20012;-67
2022/10/09 11:37:42;;;;;;;4.22;1.80;;;13.10;70.70;;;;;;5073157;28;20067;-74
2022/10/09 11:40:19;;;;;;;6.35;2.75;;;13.10;72.30;;;;;;5071156;28;20051;-67
2022/10/09 11:42:58;;;;;;;5.07;2.60;;;13.30;73.60;;;;;;5071712;28;20041;-67
2022/10/09 11:45:46;;;;;;;4.75;1.92;;;13.40;69.60;;;;;;5072152;28;20074;-73
2022/10/09 11:48:27;;;;;;;4.90;1.90;;;13.60;68.60;;;;;;5068146;28;20093;-75
2022/10/09 11:51:17;;;;;;;3.85;1.50;;;13.40;66.90;;;;;;5040386;28;20021;-68
2022/10/09 11:53:44;;;;;;;2.75;1.98;;;13.10;67.00;;;;;;5039806;28;20418;-66
2022/10/09 11:56:28;;;;;;;3.72;1.65;;;12.90;68.50;;;;;;5041186;28;20025;-67
2022/10/09 11:59:05;;;;;;;3.15;2.03;;;12.70;70.90;;;;;;5040199;28;20025;-74
2022/10/09 12:01:35;;;;;;;6.25;2.17;;;12.60;72.50;;;;;;5040416;28;20050;-66
2022/10/09 12:04:24;;;;;;;4.75;2.15;;;12.50;72.10;;;;;;5040893;28;20140;-74
2022/10/09 12:06:59;;;;;;;5.90;2.90;;;12.40;72.00;;;;;;5042331;28;20030;-67
2022/10/09 12:09:41;;;;;;;2.83;1.50;;;12.40;72.30;;;;;;5041527;28;20375;-67
2022/10/09 12:12:18;;;;;;;1.90;1.73;;;12.40;72.10;;;;;;5042202;28;20024;-67
2022/10/09 12:14:47;;;;;;;4.05;1.70;;;12.40;73.10;;;;;;5042994;28;20532;-73
2022/10/09 12:17:21;;;;;;;4.00;1.83;;;12.30;73.80;;;;;;5040068;28;20036;-74
2022/10/09 12:19:55;;;;;;;5.78;2.13;;;12.30;73.50;;;;;;5042870;28;20427;-67
2022/10/09 12:22:26;;;;;;;2.38;1.75;;;12.20;73.60;;;;;;5042822;28;20551;-67
2022/10/09 12:24:57;;;;;;;7.68;1.90;;;12.20;74.30;;;;;;5042514;28;20478;-74
2022/10/09 12:27:51;;;;;;;2.35;1.77;;;12.20;74.20;;;;;;5039814;28;20570;-74
2022/10/09 12:30:20;;;;;;;6.18;2.13;;;12.30;75.20;;;;;;5041314;28;20038;-67
2022/10/09 12:32:55;;;;;;;4.50;1.95;;;12.30;72.80;;;;;;5040810;28;20096;-74
2022/10/09 12:35:32;;;;;;;2.25;1.85;;;12.30;73.50;;;;;;5044584;28;20025;-67
2022/10/09 12:37:58;;;;;;;3.25;2.15;;;12.40;74.70;;;;;;5041153;28;20029;-67
2022/10/09 12:40:27;;;;;;;4.57;2.08;;;12.50;74.90;;;;;;5046943;28;20048;-67
2022/10/09 12:42:55;;;;;;;2.20;1.75;;;12.60;71.30;;;;;;5044029;28;20056;-68
2022/10/09 12:45:23;;;;;;;3.15;1.80;;;12.60;71.10;;;;;;5053575;28;20059;-67
2022/10/09 12:47:50;;;;;;;3.05;1.90;;;12.60;68.50;;;;;;5056154;28;20105;-74
2022/10/09 12:50:22;;;;;;;5.45;2.10;;;12.60;68.90;;;;;;5055902;28;20489;-67
2022/10/09 12:52:51;;;;;;;5.40;2.53;;;12.60;70.20;;;;;;5056120;28;20031;-74
2022/10/09 12:55:35;;;;;;;3.90;2.13;;;12.60;71.30;;;;;;5055670;28;20017;-68
2022/10/09 12:58:24;;;;;;;3.63;2.10;;;12.80;70.70;;;;;;5055905;28;20029;-74
2022/10/09 13:00:53;;;;;;;62.30;25.80;;;12.90;69.20;;;;;;5053523;28;20044;-67
2022/10/09 13:03:33;;;;;;;80.65;36.72;;;13.10;69.90;;;;;;5055634;28;20040;-67
2022/10/09 13:06:00;;;;;;;227.93;98.95;;;13.30;67.20;;;;;;5055832;28;20478;-67
2022/10/09 13:08:31;;;;;;;30.45;13.15;;;13.50;66.50;;;;;;5054504;28;20063;-74